Time;durP1;ratioP1;P1;durP2;ratioP2;P2;SDS_P1;SDS_P2;PMS_P1;PMS_P2;Temp;Humidity;BMP_temperature;BMP_pressure;BME280_temperature;BME280_humidity;BME280_pressure;Samples;Min_cycle;Max_cycle;Signal;HPM_P1;HPM_P2
2023/10/03 04:00:26;;;;;;;6.40;5.00;;;19.90;73.30;;;;;;6149635;22;21273;31
2023/10/03 04:02:57;;;;;;;6.10;5.37;;;20.00;72.70;;;;;;4954961;29;20509;-75
2023/10/03 04:05:25;;;;;;;9.07;6.13;;;19.90;72.80;;;;;;4955945;28;20916;-76
2023/10/03 04:07:52;;;;;;;6.50;5.90;;;19.90;72.60;;;;;;4956095;28;20455;-75
2023/10/03 04:10:19;;;;;;;6.73;6.07;;;20.00;72.40;;;;;;4955513;28;20478;-75
2023/10/03 04:12:45;;;;;;;5.73;5.13;;;20.00;72.60;;;;;;4955772;28;20474;-76
2023/10/03 04:15:13;;;;;;;7.10;6.40;;;20.00;71.90;;;;;;4956511;28;20537;-76
2023/10/03 04:17:41;;;;;;;6.23;5.60;;;20.10;71.60;;;;;;4955943;28;20446;-76
2023/10/03 04:20:19;;;;;;;6.53;5.80;;;20.10;71.60;;;;;;4955898;28;20887;-77
2023/10/03 04:22:47;;;;;;;7.10;6.40;;;20.10;71.40;;;;;;4955780;28;20501;-76
2023/10/03 04:25:15;;;;;;;6.23;4.77;;;20.10;70.70;;;;;;4955839;28;20450;-75
2023/10/03 04:27:42;;;;;;;7.80;6.30;;;20.10;71.00;;;;;;4955795;28;20828;-75
2023/10/03 04:30:12;;;;;;;6.73;5.43;;;20.20;71.00;;;;;;4955712;28;20482;-76
2023/10/03 04:32:39;;;;;;;7.20;5.93;;;20.10;71.10;;;;;;4955349;28;20995;-76
2023/10/03 04:35:11;;;;;;;7.10;6.37;;;20.10;71.10;;;;;;4955655;28;20443;-75
2023/10/03 04:37:40;;;;;;;6.90;5.27;;;20.10;71.20;;;;;;4955659;28;20521;-76
2023/10/03 04:40:12;;;;;;;6.53;5.27;;;20.10;71.10;;;;;;4955553;28;20517;-76
2023/10/03 04:42:40;;;;;;;9.00;6.30;;;20.10;71.00;;;;;;4955488;28;20470;-76
2023/10/03 04:45:10;;;;;;;8.20;5.90;;;20.10;71.00;;;;;;4955488;28;20454;-76
2023/10/03 04:47:38;;;;;;;5.63;4.97;;;20.20;70.70;;;;;;4955455;28;20450;-76
2023/10/03 04:50:05;;;;;;;5.67;5.17;;;20.20;70.40;;;;;;4955329;28;20590;-76
2023/10/03 04:52:32;;;;;;;5.63;5.03;;;20.20;70.30;;;;;;4955388;28;20521;-75
2023/10/03 04:55:00;;;;;;;7.20;5.10;;;20.20;70.30;;;;;;4955399;28;20450;-76
2023/10/03 04:57:27;;;;;;;5.53;4.77;;;20.30;70.00;;;;;;4955352;28;20539;-76
2023/10/03 04:59:56;;;;;;;5.50;4.50;;;20.20;69.50;;;;;;4955273;28;20956;-76
2023/10/03 05:02:22;;;;;;;7.97;5.63;;;20.20;69.40;;;;;;4954908;28;20534;-75
2023/10/03 05:04:49;;;;;;;5.43;4.70;;;20.20;70.20;;;;;;4955292;28;20878;-76
2023/10/03 05:07:16;;;;;;;4.50;4.10;;;20.20;69.70;;;;;;4955232;28;20451;-76
2023/10/03 05:09:42;;;;;;;5.73;5.13;;;20.20;69.80;;;;;;4955123;28;20529;-76
2023/10/03 05:12:11;;;;;;;5.20;4.70;;;20.20;70.20;;;;;;4955151;28;20471;-76
2023/10/03 05:14:40;;;;;;;5.93;5.20;;;20.20;70.10;;;;;;4954868;28;20447;-76
2023/10/03 05:17:07;;;;;;;5.60;4.97;;;20.20;70.20;;;;;;4954833;28;20450;-76
2023/10/03 05:19:34;;;;;;;5.70;5.10;;;20.00;70.10;;;;;;4955129;28;20443;-76
2023/10/03 05:22:02;;;;;;;5.57;4.90;;;20.00;70.50;;;;;;4955980;28;20561;-76
2023/10/03 05:24:31;;;;;;;5.17;4.63;;;20.00;70.20;;;;;;4959095;28;20443;-76
2023/10/03 05:26:59;;;;;;;6.00;5.40;;;20.00;70.30;;;;;;4958730;28;20998;-76
2023/10/03 05:29:28;;;;;;;6.43;5.23;;;20.10;70.40;;;;;;4958870;28;20482;-76
2023/10/03 05:31:55;;;;;;;5.07;4.43;;;20.10;70.00;;;;;;4958549;28;20561;-76
2023/10/03 05:34:21;;;;;;;6.30;4.87;;;20.10;69.80;;;;;;4958927;28;20447;-76
2023/10/03 05:36:48;;;;;;;6.07;4.70;;;20.10;69.80;;;;;;4958856;28;20450;-76
2023/10/03 05:39:15;;;;;;;5.60;4.60;;;20.20;69.50;;;;;;4958821;28;20454;-76
2023/10/03 05:41:42;;;;;;;5.30;4.47;;;20.20;69.80;;;;;;4958739;28;20510;-76
2023/10/03 05:44:11;;;;;;;5.83;4.77;;;20.10;69.30;;;;;;4958746;28;20507;-76
2023/10/03 05:46:40;;;;;;;5.03;4.50;;;20.20;69.30;;;;;;4958662;28;20450;-76
2023/10/03 05:49:07;;;;;;;6.20;4.40;;;20.10;69.00;;;;;;4958266;28;20447;-76
2023/10/03 05:51:34;;;;;;;5.40;4.13;;;20.10;68.40;;;;;;4958246;28;20893;-76
2023/10/03 05:54:02;;;;;;;5.37;4.20;;;20.20;69.20;;;;;;4958573;28;20821;-76
2023/10/03 05:56:28;;;;;;;7.70;5.03;;;20.30;68.70;;;;;;4958536;28;20478;-76
2023/10/03 05:58:55;;;;;;;5.60;4.40;;;20.30;68.00;;;;;;4958498;28;20443;-76
2023/10/03 06:01:22;;;;;;;4.57;4.00;;;20.40;67.80;;;;;;4958122;28;20486;-76
2023/10/03 06:03:50;;;;;;;5.37;4.57;;;20.30;68.20;;;;;;4958395;28;20449;-76
2023/10/03 06:06:17;;;;;;;4.70;4.13;;;20.40;68.10;;;;;;4958191;28;20459;-75
2023/10/03 06:08:48;;;;;;;5.53;4.17;;;20.40;68.00;;;;;;4958311;28;20450;-76
2023/10/03 06:11:15;;;;;;;5.33;4.83;;;20.40;68.00;;;;;;4958169;28;20545;-76
2023/10/03 06:13:44;;;;;;;5.83;4.80;;;20.40;68.20;;;;;;4958231;28;20442;-76
2023/10/03 06:16:12;;;;;;;4.43;4.00;;;20.60;68.10;;;;;;4958178;28;20521;-76
2023/10/03 06:18:39;;;;;;;6.73;5.17;;;21.20;67.00;;;;;;4957808;28;20943;-75
2023/10/03 06:21:08;;;;;;;5.93;4.93;;;22.00;64.70;;;;;;4958025;28;20466;-76
2023/10/03 06:23:34;;;;;;;4.97;4.47;;;22.00;63.80;;;;;;4958022;28;20953;-76
2023/10/03 06:26:01;;;;;;;4.60;4.07;;;22.20;64.30;;;;;;4957651;28;20446;-76
2023/10/03 06:28:29;;;;;;;4.93;4.30;;;22.90;62.30;;;;;;4957914;28;20550;-76
2023/10/03 06:30:56;;;;;;;4.57;4.00;;;23.40;60.60;;;;;;4957705;28;20522;-76
2023/10/03 06:33:23;;;;;;;5.00;4.33;;;23.30;60.40;;;;;;4956998;28;20447;-76
2023/10/03 06:35:51;;;;;;;4.97;4.50;;;24.00;59.30;;;;;;4958158;28;20443;-76
2023/10/03 06:38:19;;;;;;;4.60;4.00;;;24.70;58.20;;;;;;4957788;28;20877;-76
2023/10/03 06:40:46;;;;;;;4.83;4.33;;;25.80;56.30;;;;;;4957556;28;20472;-75
2023/10/03 06:43:13;;;;;;;4.30;3.90;;;26.90;53.70;;;;;;4957362;28;20447;-77
2023/10/03 06:45:40;;;;;;;4.90;4.40;;;27.70;52.00;;;;;;4957621;28;20446;-76
2023/10/03 06:48:07;;;;;;;5.20;4.17;;;28.30;51.10;;;;;;4957591;28;20490;-76
2023/10/03 06:50:34;;;;;;;5.10;4.10;;;29.20;48.60;;;;;;4957364;28;20497;-77
2023/10/03 06:53:01;;;;;;;4.43;4.03;;;30.00;47.90;;;;;;4957530;28;20447;-76
2023/10/03 06:55:29;;;;;;;4.73;4.17;;;30.80;46.30;;;;;;4957461;28;20458;-76
2023/10/03 06:57:55;;;;;;;4.30;3.90;;;31.50;44.30;;;;;;4957370;28;20451;-77
2023/10/03 07:00:22;;;;;;;4.60;4.20;;;32.00;43.30;;;;;;4957416;28;20443;-77
2023/10/03 07:02:49;;;;;;;4.27;3.87;;;32.20;42.40;;;;;;4957329;28;20439;-76
2023/10/03 07:05:16;;;;;;;4.30;3.83;;;31.60;43.60;;;;;;4957277;28;20466;-76
2023/10/03 07:07:43;;;;;;;4.20;3.80;;;31.20;44.30;;;;;;4957243;28;20439;-76
2023/10/03 07:10:11;;;;;;;4.77;3.90;;;31.20;44.30;;;;;;4956841;28;20999;-77
2023/10/03 07:12:39;;;;;;;4.77;4.00;;;31.00;44.10;;;;;;4957076;28;20475;-76
2023/10/03 07:15:08;;;;;;;4.33;3.93;;;31.40;44.20;;;;;;4957131;28;20487;-76
2023/10/03 07:17:36;;;;;;;4.00;3.60;;;32.00;43.20;;;;;;4957100;28;20454;-76
2023/10/03 07:20:04;;;;;;;4.50;4.10;;;32.80;43.40;;;;;;4957021;28;20439;-76
2023/10/03 07:22:31;;;;;;;4.70;3.90;;;33.50;41.80;;;;;;4956621;28;20561;-76
2023/10/03 07:24:58;;;;;;;3.83;3.53;;;33.70;41.00;;;;;;4957102;28;20453;-76
2023/10/03 07:27:25;;;;;;;5.60;3.47;;;33.80;41.10;;;;;;4957127;28;20454;-75
2023/10/03 07:29:53;;;;;;;3.80;3.40;;;33.70;40.50;;;;;;4957241;28;20479;-76
2023/10/03 07:32:19;;;;;;;3.70;3.33;;;32.60;43.10;;;;;;4957125;28;20500;-75
2023/10/03 07:34:46;;;;;;;3.87;3.50;;;32.40;43.20;;;;;;4957059;28;20450;-75
2023/10/03 07:37:15;;;;;;;4.33;3.47;;;31.80;43.10;;;;;;4956989;28;20832;-76
2023/10/03 07:39:42;;;;;;;4.23;3.53;;;30.70;45.60;;;;;;4956285;28;20455;-75
2023/10/03 07:42:11;;;;;;;3.73;3.33;;;30.10;46.30;;;;;;4956556;28;20466;-74
2023/10/03 07:44:38;;;;;;;4.70;3.80;;;29.40;48.40;;;;;;4956474;28;20818;-74
2023/10/03 07:47:06;;;;;;;4.10;3.40;;;29.20;47.90;;;;;;4955595;28;20450;-74
2023/10/03 07:49:33;;;;;;;4.00;3.60;;;28.60;48.20;;;;;;4956437;28;20477;-75
2023/10/03 07:52:00;;;;;;;3.83;3.43;;;27.80;50.40;;;;;;4956017;28;20995;-75
2023/10/03 07:54:31;;;;;;;4.63;3.20;;;27.60;50.80;;;;;;4956371;28;20478;-77
2023/10/03 07:56:58;;;;;;;3.50;2.90;;;27.40;52.30;;;;;;4956035;28;20861;-75
2023/10/03 07:59:25;;;;;;;4.60;3.37;;;27.30;52.70;;;;;;4956286;28;20458;-75
2023/10/03 08:01:53;;;;;;;3.50;2.93;;;27.40;51.30;;;;;;4955916;28;20502;-74
2023/10/03 08:04:21;;;;;;;3.17;2.80;;;27.10;51.80;;;;;;4955877;28;20932;-75
2023/10/03 08:06:48;;;;;;;3.60;2.87;;;26.90;52.00;;;;;;4956139;28;20510;-75
2023/10/03 08:09:15;;;;;;;3.47;2.97;;;26.70;51.70;;;;;;4956153;28;20551;-75
2023/10/03 08:11:46;;;;;;;4.33;2.97;;;26.30;52.40;;;;;;4955641;28;21011;-75
2023/10/03 08:14:16;;;;;;;4.00;2.87;;;26.20;52.90;;;;;;4955786;28;20455;-75
2023/10/03 08:16:43;;;;;;;5.50;3.20;;;26.00;53.70;;;;;;4956014;28;20473;-75
2023/10/03 08:19:21;;;;;;;3.87;3.10;;;26.20;53.90;;;;;;4955945;28;20447;-74
2023/10/03 08:21:49;;;;;;;3.63;3.33;;;26.50;52.60;;;;;;4955840;28;20846;-75
2023/10/03 08:24:19;;;;;;;4.53;3.43;;;26.70;53.80;;;;;;4955854;28;20443;-75
2023/10/03 08:26:46;;;;;;;3.73;3.00;;;26.80;53.70;;;;;;4955787;28;20447;-75
2023/10/03 08:29:21;;;;;;;3.70;3.00;;;26.80;53.20;;;;;;4955464;28;20903;-75
2023/10/03 08:31:49;;;;;;;3.67;2.80;;;26.70;52.50;;;;;;4955321;28;20497;-75
2023/10/03 08:34:17;;;;;;;3.30;2.90;;;26.50;53.40;;;;;;4955337;28;20486;-76
2023/10/03 08:36:43;;;;;;;3.30;2.57;;;26.40;54.10;;;;;;4955644;28;20505;-75
2023/10/03 08:39:13;;;;;;;4.60;3.20;;;26.20;54.10;;;;;;4955319;28;20933;-74
2023/10/03 08:41:47;;;;;;;3.00;2.67;;;25.90;55.20;;;;;;4955500;28;20522;-76
2023/10/03 08:44:14;;;;;;;4.17;3.77;;;25.70;55.00;;;;;;4955640;28;20425;-76
2023/10/03 08:46:45;;;;;;;5.27;3.10;;;25.70;56.10;;;;;;4955358;28;20933;-73
2023/10/03 08:49:17;;;;;;;3.80;2.90;;;25.70;56.10;;;;;;4955568;28;20435;-75
2023/10/03 08:51:45;;;;;;;3.77;3.20;;;25.70;56.20;;;;;;4955009;28;20526;-75
2023/10/03 08:54:14;;;;;;;3.77;3.30;;;25.60;56.10;;;;;;4955400;28;20454;-74
2023/10/03 08:56:42;;;;;;;3.83;2.83;;;25.40;56.50;;;;;;4955066;28;20447;-76
2023/10/03 08:59:09;;;;;;;4.07;3.10;;;25.60;56.60;;;;;;4955279;28;20506;-76
2023/10/03 09:01:39;;;;;;;5.93;3.00;;;25.80;57.90;;;;;;4955578;28;20895;-75
2023/10/03 09:04:15;;;;;;;3.77;3.20;;;25.80;56.40;;;;;;4955077;28;20446;-74
2023/10/03 09:06:43;;;;;;;3.60;2.93;;;25.80;56.20;;;;;;4955145;28;20498;-76
2023/10/03 09:09:14;;;;;;;3.43;3.00;;;25.70;56.30;;;;;;4955146;28;20443;-75
2023/10/03 09:11:42;;;;;;;3.47;2.83;;;25.50;58.00;;;;;;4954863;28;20549;-75
2023/10/03 09:14:12;;;;;;;3.70;3.03;;;25.60;57.30;;;;;;4955077;28;20455;-75
2023/10/03 09:16:39;;;;;;;3.00;2.70;;;25.70;57.70;;;;;;4954762;28;20447;-76
2023/10/03 09:19:07;;;;;;;3.33;2.60;;;25.80;58.60;;;;;;4955092;28;20485;-75
2023/10/03 09:21:33;;;;;;;6.00;3.03;;;25.80;58.40;;;;;;4954676;28;21093;-75
2023/10/03 09:24:12;;;;;;;3.97;3.13;;;25.90;57.00;;;;;;4954808;28;20450;-76
2023/10/03 09:26:46;;;;;;;5.30;3.23;;;26.10;58.00;;;;;;4955070;28;20435;-75
2023/10/03 09:29:18;;;;;;;3.80;2.73;;;25.90;56.90;;;;;;4954802;28;20905;-75
2023/10/03 09:31:46;;;;;;;4.47;3.17;;;25.90;56.80;;;;;;4954896;28;20561;-74
2023/10/03 09:34:14;;;;;;;2.60;2.23;;;25.80;57.80;;;;;;4954989;28;20482;-75
2023/10/03 09:36:41;;;;;;;3.77;2.60;;;25.80;58.30;;;;;;4954555;28;20804;-75
2023/10/03 09:39:08;;;;;;;3.87;2.50;;;25.80;57.90;;;;;;4954925;28;20442;-75
2023/10/03 09:41:38;;;;;;;3.90;2.57;;;25.80;58.40;;;;;;4954896;28;20467;-75
2023/10/03 09:44:10;;;;;;;3.40;2.57;;;25.80;59.30;;;;;;4954850;28;20439;-74
2023/10/03 09:46:39;;;;;;;3.40;2.40;;;25.90;57.80;;;;;;4954949;28;20435;-74
2023/10/03 09:49:09;;;;;;;5.60;2.50;;;26.00;57.30;;;;;;4954962;28;20447;-73
2023/10/03 09:51:46;;;;;;;3.77;2.60;;;26.10;57.30;;;;;;4954450;28;20493;-75
2023/10/03 09:54:20;;;;;;;4.30;3.03;;;26.20;57.00;;;;;;4954881;28;20431;-76
2023/10/03 09:56:52;;;;;;;3.17;2.70;;;26.30;59.40;;;;;;4954823;28;20431;-76
2023/10/03 09:59:20;;;;;;;3.70;2.67;;;26.50;57.00;;;;;;4954798;28;20494;-76
2023/10/03 10:01:47;;;;;;;2.97;2.43;;;26.70;56.80;;;;;;4954409;28;20490;-76
2023/10/03 10:04:17;;;;;;;3.37;2.23;;;26.80;56.50;;;;;;4954697;28;20501;-76
2023/10/03 10:06:50;;;;;;;3.67;2.40;;;26.90;55.90;;;;;;4954694;28;20454;-75
2023/10/03 10:09:27;;;;;;;4.50;2.47;;;27.10;56.10;;;;;;4955952;28;20427;-75
2023/10/03 10:12:18;;;;;;;2.93;2.17;;;27.30;56.20;;;;;;4958163;28;20526;-75
2023/10/03 10:15:15;;;;;;;3.00;2.57;;;27.30;56.30;;;;;;4958223;28;20431;-74
2023/10/03 10:17:51;;;;;;;3.90;3.20;;;27.00;55.30;;;;;;5053793;23;20993;-71
2023/10/03 10:20:21;;;;;;;3.20;2.60;;;26.80;56.00;;;;;;4996562;28;20918;-71
2023/10/03 10:23:12;;;;;;;3.80;3.13;;;26.70;56.80;;;;;;4996530;28;20907;-72
2023/10/03 10:25:42;;;;;;;2.93;2.53;;;26.80;57.20;;;;;;4996503;28;20425;-71
2023/10/03 10:28:10;;;;;;;2.90;2.60;;;26.70;56.80;;;;;;4997684;28;20497;-71
2023/10/03 10:30:42;;;;;;;4.37;2.60;;;26.80;57.60;;;;;;4996665;28;20468;-71
2023/10/03 10:33:24;;;;;;;3.30;2.70;;;26.90;57.20;;;;;;4996689;28;20456;-71
2023/10/03 10:35:54;;;;;;;2.90;2.60;;;26.80;57.30;;;;;;4996792;28;20433;-72
2023/10/03 10:38:21;;;;;;;3.80;2.87;;;26.70;57.30;;;;;;4996480;28;20531;-71
2023/10/03 10:41:22;;;;;;;2.70;2.20;;;26.70;57.60;;;;;;4996113;28;20949;-71
2023/10/03 10:44:09;;;;;;;3.17;2.70;;;26.70;57.30;;;;;;4996350;28;20831;-72
2023/10/03 10:46:39;;;;;;;3.60;2.10;;;26.60;57.60;;;;;;4995905;28;20877;-72
2023/10/03 10:49:10;;;;;;;2.60;2.30;;;26.50;57.20;;;;;;4996370;28;20472;-72
2023/10/03 10:51:37;;;;;;;2.97;2.23;;;26.40;57.20;;;;;;4995852;28;20846;-72
2023/10/03 10:54:04;;;;;;;5.07;2.90;;;26.30;56.90;;;;;;4996165;28;20488;-73
2023/10/03 10:56:33;;;;;;;5.73;2.53;;;26.40;58.40;;;;;;4996096;28;20481;-71
2023/10/03 10:59:04;;;;;;;3.40;3.10;;;26.50;56.70;;;;;;4996101;28;20488;-72
2023/10/03 11:01:37;;;;;;;2.97;2.67;;;26.70;57.40;;;;;;4996115;28;20422;-72
2023/10/03 11:04:06;;;;;;;3.90;2.60;;;27.00;56.80;;;;;;4996041;28;20449;-71
2023/10/03 11:06:33;;;;;;;3.77;1.80;;;27.30;55.90;;;;;;4995864;28;20456;-71
2023/10/03 11:09:00;;;;;;;4.83;2.70;;;27.60;55.40;;;;;;4995594;28;20445;-71
2023/10/03 11:11:36;;;;;;;3.07;2.30;;;28.00;54.70;;;;;;4995802;28;20487;-71
2023/10/03 11:14:02;;;;;;;4.17;2.77;;;28.20;53.90;;;;;;4995569;28;20453;-71
2023/10/03 11:16:29;;;;;;;2.80;2.43;;;28.20;54.60;;;;;;4995522;28;20512;-71
2023/10/03 11:18:58;;;;;;;3.10;2.50;;;28.20;54.50;;;;;;4995736;28;20433;-71
2023/10/03 11:21:29;;;;;;;2.63;2.30;;;28.10;54.30;;;;;;4995450;28;20441;-70
2023/10/03 11:24:15;;;;;;;3.30;3.00;;;27.80;54.70;;;;;;4995727;28;20883;-71
2023/10/03 11:26:47;;;;;;;3.10;2.50;;;27.80;55.20;;;;;;4995545;28;20465;-71
2023/10/03 11:29:16;;;;;;;3.83;3.13;;;27.80;54.60;;;;;;4995630;28;20481;-73
2023/10/03 11:31:43;;;;;;;2.93;2.50;;;27.60;55.30;;;;;;4995452;28;20975;-72
2023/10/03 11:34:10;;;;;;;2.97;2.50;;;27.40;55.70;;;;;;4995453;28;20453;-73
2023/10/03 11:36:43;;;;;;;3.23;2.80;;;27.30;56.30;;;;;;4995382;28;20460;-73
2023/10/03 11:39:12;;;;;;;3.53;2.60;;;27.60;56.80;;;;;;4995455;28;20455;-72
2023/10/03 11:41:39;;;;;;;4.17;3.00;;;27.70;55.50;;;;;;4995300;28;20445;-73
2023/10/03 11:44:20;;;;;;;3.87;2.77;;;27.90;55.50;;;;;;4995241;28;20452;-73
2023/10/03 11:46:48;;;;;;;4.10;2.50;;;28.00;54.40;;;;;;4995131;28;20527;-72
2023/10/03 11:49:15;;;;;;;3.70;2.80;;;28.00;55.40;;;;;;4995144;28;20456;-72
2023/10/03 11:51:44;;;;;;;2.77;2.33;;;28.10;54.80;;;;;;4994812;28;20485;-72
2023/10/03 11:54:11;;;;;;;2.30;2.00;;;28.30;55.60;;;;;;4995092;28;20448;-72
2023/10/03 11:56:46;;;;;;;3.53;2.80;;;28.30;55.50;;;;;;4995003;28;20469;-73
2023/10/03 11:59:14;;;;;;;3.07;2.60;;;28.30;54.80;;;;;;4995061;28;20440;-72
2023/10/03 12:01:43;;;;;;;3.33;2.90;;;28.40;53.70;;;;;;4994935;28;20476;-72
2023/10/03 12:04:11;;;;;;;3.50;2.73;;;28.70;53.00;;;;;;4994824;28;20445;-73
2023/10/03 12:06:38;;;;;;;4.60;2.40;;;28.80;52.80;;;;;;4994456;28;20981;-72
2023/10/03 12:09:09;;;;;;;3.17;2.57;;;28.90;53.80;;;;;;4994795;28;20449;-73
2023/10/03 12:11:37;;;;;;;3.63;3.33;;;28.80;53.00;;;;;;4994685;28;20473;-73
2023/10/03 12:14:04;;;;;;;4.23;3.13;;;28.70;53.70;;;;;;4994789;28;20481;-74
2023/10/03 12:16:31;;;;;;;2.57;2.37;;;28.80;53.00;;;;;;4994496;28;20449;-73
2023/10/03 12:18:58;;;;;;;3.60;2.87;;;29.20;53.50;;;;;;4994666;28;20433;-72
2023/10/03 12:21:25;;;;;;;3.20;2.50;;;29.40;51.90;;;;;;4994416;28;20446;-72
2023/10/03 12:23:51;;;;;;;3.53;2.47;;;29.70;51.90;;;;;;4994497;28;20445;-73
2023/10/03 12:26:20;;;;;;;5.83;2.47;;;29.80;51.30;;;;;;4994440;28;20508;-72
2023/10/03 12:28:47;;;;;;;2.90;2.60;;;29.80;51.50;;;;;;4994445;28;20449;-73
2023/10/03 12:31:14;;;;;;;3.10;2.47;;;30.00;51.50;;;;;;4994054;28;20449;-73
2023/10/03 12:33:40;;;;;;;3.33;2.30;;;29.90;51.90;;;;;;4994143;28;20452;-74
2023/10/03 12:36:11;;;;;;;4.10;2.50;;;29.60;52.00;;;;;;4994329;28;20444;-72
2023/10/03 12:38:38;;;;;;;5.77;3.03;;;29.30;52.30;;;;;;4994267;28;20465;-73
2023/10/03 12:41:05;;;;;;;4.57;2.90;;;28.80;54.00;;;;;;4994259;28;20460;-72
2023/10/03 12:43:35;;;;;;;3.60;2.90;;;28.40;54.00;;;;;;4994205;28;20449;-73
2023/10/03 12:46:01;;;;;;;3.87;2.93;;;28.00;55.20;;;;;;4993804;28;20457;-72
2023/10/03 12:48:28;;;;;;;3.83;3.43;;;27.60;56.20;;;;;;4993787;28;20465;-74
2023/10/03 12:50:55;;;;;;;3.70;2.63;;;27.30;56.50;;;;;;4994063;28;20441;-73
2023/10/03 12:53:22;;;;;;;6.13;3.17;;;27.20;57.00;;;;;;4993928;28;20535;-73
2023/10/03 12:55:49;;;;;;;3.83;2.80;;;26.80;57.30;;;;;;4994030;28;20456;-73
2023/10/03 12:58:19;;;;;;;3.87;2.83;;;26.60;58.00;;;;;;4993955;28;20499;-73
2023/10/03 13:00:49;;;;;;;6.20;3.00;;;26.40;58.90;;;;;;4993919;28;20503;-73
2023/10/03 13:03:15;;;;;;;5.03;3.13;;;26.40;59.10;;;;;;4993911;28;20452;-72
2023/10/03 13:05:42;;;;;;;7.13;2.93;;;26.30;59.10;;;;;;4993565;28;20822;-74
2023/10/03 13:08:09;;;;;;;4.77;2.83;;;26.30;59.80;;;;;;4993861;28;20845;-71
2023/10/03 13:10:38;;;;;;;3.93;3.47;;;26.40;59.90;;;;;;4993860;28;20841;-72
2023/10/03 13:13:05;;;;;;;3.00;2.70;;;26.80;59.00;;;;;;4993463;28;21005;-72
2023/10/03 13:15:33;;;;;;;3.90;3.30;;;27.30;57.70;;;;;;4993685;28;20449;-72
2023/10/03 13:18:00;;;;;;;3.00;2.50;;;27.50;57.60;;;;;;4993430;28;20534;-72
2023/10/03 13:20:28;;;;;;;3.30;2.70;;;27.30;57.90;;;;;;4993778;28;20450;-75
2023/10/03 13:22:57;;;;;;;3.10;2.57;;;26.80;58.40;;;;;;4993847;28;20444;-72
2023/10/03 13:25:24;;;;;;;4.60;3.30;;;26.30;59.90;;;;;;4993955;28;20449;-77
2023/10/03 13:27:53;;;;;;;3.00;2.70;;;26.10;60.30;;;;;;4993675;28;20527;-77
2023/10/03 13:30:24;;;;;;;3.07;2.77;;;26.00;60.90;;;;;;4993739;28;20460;-76
2023/10/03 13:32:53;;;;;;;3.23;2.93;;;25.90;61.20;;;;;;4993636;28;20480;-73
2023/10/03 13:35:22;;;;;;;3.87;3.47;;;25.70;62.00;;;;;;4993646;28;20482;-71
2023/10/03 13:37:49;;;;;;;3.47;2.80;;;25.60;62.70;;;;;;4993621;28;20474;-73
2023/10/03 13:40:17;;;;;;;4.57;3.50;;;25.60;63.10;;;;;;4993244;28;20930;-71
2023/10/03 13:42:43;;;;;;;4.13;3.70;;;25.40;63.40;;;;;;4993782;28;20461;-71
2023/10/03 13:45:12;;;;;;;4.07;3.67;;;25.40;63.60;;;;;;4997280;28;20923;-73
2023/10/03 13:47:39;;;;;;;3.00;2.70;;;25.50;64.10;;;;;;4997389;28;20464;-72
2023/10/03 13:50:09;;;;;;;2.90;2.60;;;25.80;63.20;;;;;;4997408;28;20557;-73
2023/10/03 13:52:38;;;;;;;3.40;3.10;;;26.10;62.40;;;;;;4997822;28;20487;-73
2023/10/03 13:55:06;;;;;;;3.30;2.87;;;27.40;59.30;;;;;;4997351;28;20481;-71
2023/10/03 13:57:34;;;;;;;3.73;3.20;;;28.60;55.60;;;;;;4996867;28;20985;-71
2023/10/03 14:00:01;;;;;;;3.30;3.00;;;28.70;55.50;;;;;;4997220;28;20457;-71
2023/10/03 14:02:28;;;;;;;4.40;2.77;;;29.40;54.30;;;;;;4996912;28;20935;-72
2023/10/03 14:04:54;;;;;;;4.97;2.70;;;30.20;52.40;;;;;;4997111;28;20449;-71
2023/10/03 14:07:22;;;;;;;4.00;3.00;;;31.00;50.80;;;;;;4997050;28;20465;-73
2023/10/03 14:09:50;;;;;;;3.40;3.00;;;31.40;49.80;;;;;;4996827;28;20453;-71
2023/10/03 14:12:17;;;;;;;3.03;2.73;;;32.10;48.30;;;;;;4996786;28;20508;-72
2023/10/03 14:14:45;;;;;;;5.60;2.83;;;32.10;48.10;;;;;;4997076;28;20491;-74
2023/10/03 14:17:12;;;;;;;3.00;2.53;;;31.40;49.20;;;;;;4996865;28;20531;-72
2023/10/03 14:19:39;;;;;;;3.00;2.70;;;30.50;50.20;;;;;;4996966;28;20448;-72
2023/10/03 14:22:05;;;;;;;3.90;2.67;;;29.70;52.20;;;;;;4996819;28;20445;-71
2023/10/03 14:24:33;;;;;;;4.30;2.83;;;28.90;53.20;;;;;;4996766;28;20448;-72
2023/10/03 14:27:01;;;;;;;4.30;2.63;;;28.00;54.90;;;;;;4996650;28;20508;-72
2023/10/03 14:29:28;;;;;;;3.60;3.10;;;27.30;56.70;;;;;;4996710;28;20460;-71
2023/10/03 14:31:54;;;;;;;2.90;2.60;;;27.10;56.90;;;;;;4996562;28;20481;-73
2023/10/03 14:34:21;;;;;;;2.87;2.40;;;26.70;57.60;;;;;;4996616;28;20472;-72
2023/10/03 14:36:48;;;;;;;3.60;2.63;;;26.80;57.60;;;;;;4996419;28;20468;-72
2023/10/03 14:39:19;;;;;;;3.73;2.70;;;26.70;57.60;;;;;;4996522;28;20456;-72
2023/10/03 14:41:48;;;;;;;2.50;2.23;;;26.40;58.20;;;;;;4996534;28;20437;-76
2023/10/03 14:44:16;;;;;;;3.43;2.30;;;26.00;58.60;;;;;;4996396;28;20547;-74
2023/10/03 14:46:42;;;;;;;5.40;2.90;;;25.60;59.70;;;;;;4996314;28;20472;-73
2023/10/03 14:49:10;;;;;;;3.97;3.33;;;25.50;60.10;;;;;;4996303;28;20452;-73
2023/10/03 14:51:37;;;;;;;3.13;2.83;;;25.40;60.60;;;;;;4995951;28;20611;-72
2023/10/03 14:54:03;;;;;;;3.43;2.77;;;25.30;61.40;;;;;;4996155;28;20484;-74
2023/10/03 14:56:30;;;;;;;5.20;2.63;;;25.20;61.30;;;;;;4995534;28;20468;-73
2023/10/03 14:58:58;;;;;;;3.17;2.40;;;25.00;61.50;;;;;;4995842;28;20853;-71
2023/10/03 15:01:26;;;;;;;3.30;2.30;;;24.80;62.40;;;;;;4996101;28;20484;-72
2023/10/03 15:03:55;;;;;;;2.60;2.10;;;24.70;62.50;;;;;;4995791;28;20939;-73
2023/10/03 15:06:21;;;;;;;2.93;2.07;;;24.50;62.70;;;;;;4995878;28;20452;-72
2023/10/03 15:08:49;;;;;;;5.10;2.13;;;24.50;62.80;;;;;;4996012;28;20445;-73
2023/10/03 15:11:16;;;;;;;2.90;2.60;;;24.50;63.10;;;;;;4996457;28;20449;-72
2023/10/03 15:13:43;;;;;;;3.70;2.07;;;24.40;62.90;;;;;;4995555;28;20488;-72
2023/10/03 15:16:10;;;;;;;11.27;2.80;;;24.30;62.90;;;;;;4995906;28;20449;-74
2023/10/03 15:18:38;;;;;;;2.60;2.00;;;24.30;63.50;;;;;;4995339;28;20480;-74
2023/10/03 15:21:07;;;;;;;3.90;1.97;;;24.30;63.00;;;;;;4995743;28;20445;-75
2023/10/03 15:23:34;;;;;;;3.03;2.10;;;24.30;63.20;;;;;;4995736;28;20441;-72
2023/10/03 15:26:04;;;;;;;2.57;2.23;;;24.20;63.40;;;;;;4995449;28;20822;-75
2023/10/03 15:28:31;;;;;;;3.47;2.30;;;24.20;63.90;;;;;;4995644;28;20461;-74
2023/10/03 15:30:57;;;;;;;3.93;1.93;;;24.20;64.70;;;;;;4995527;28;20445;-74
2023/10/03 15:33:25;;;;;;;3.30;2.20;;;24.10;66.90;;;;;;4995113;28;20492;-74
2023/10/03 15:35:55;;;;;;;3.37;2.17;;;23.90;69.00;;;;;;4995464;28;20480;-74
2023/10/03 15:38:23;;;;;;;4.03;2.07;;;23.70;70.60;;;;;;4995054;28;20966;-74
2023/10/03 15:40:50;;;;;;;3.67;2.30;;;23.60;71.00;;;;;;4995384;28;20477;-74
2023/10/03 15:43:18;;;;;;;3.63;2.47;;;23.40;71.40;;;;;;4996047;28;20837;-75
2023/10/03 15:45:46;;;;;;;2.60;2.20;;;23.20;72.50;;;;;;4995311;28;20931;-74
2023/10/03 15:48:13;;;;;;;3.37;2.40;;;23.10;72.40;;;;;;4995140;28;20544;-74
2023/10/03 15:50:40;;;;;;;4.00;2.50;;;23.00;73.40;;;;;;4994907;28;20879;-74
2023/10/03 15:53:10;;;;;;;5.07;2.90;;;22.70;74.50;;;;;;4995122;28;20480;-74
2023/10/03 15:55:38;;;;;;;2.77;2.43;;;22.80;75.40;;;;;;4996232;28;20441;-75
2023/10/03 15:58:06;;;;;;;7.17;2.70;;;22.70;75.90;;;;;;4995049;28;20567;-74
2023/10/03 16:00:32;;;;;;;3.70;2.40;;;22.50;75.90;;;;;;4994764;28;20505;-74
2023/10/03 16:03:00;;;;;;;2.10;1.50;;;22.10;78.20;;;;;;4994964;28;20445;-74
2023/10/03 16:05:27;;;;;;;2.50;1.63;;;21.70;79.50;;;;;;4994921;28;20445;-73
2023/10/03 16:07:54;;;;;;;2.90;1.67;;;21.20;81.10;;;;;;4993919;28;20480;-75
2023/10/03 16:10:23;;;;;;;3.03;1.40;;;21.00;82.20;;;;;;4994811;28;20449;-74
2023/10/03 16:12:51;;;;;;;2.20;1.20;;;20.70;81.50;;;;;;4994650;28;20485;-74
2023/10/03 16:15:17;;;;;;;1.97;1.30;;;20.40;80.20;;;;;;4994725;28;20488;-75
2023/10/03 16:17:44;;;;;;;2.33;1.40;;;20.20;80.60;;;;;;4995073;28;20484;-75
2023/10/03 16:20:11;;;;;;;2.17;1.10;;;20.00;80.70;;;;;;4994382;28;20441;-75
2023/10/03 16:22:39;;;;;;;2.33;1.40;;;19.90;80.60;;;;;;4995155;28;20449;-75
2023/10/03 16:25:07;;;;;;;2.30;1.40;;;19.80;81.00;;;;;;4994746;28;20934;-75
2023/10/03 16:27:37;;;;;;;2.33;1.27;;;19.70;81.20;;;;;;4995189;28;20500;-75
2023/10/03 16:30:05;;;;;;;2.00;1.17;;;19.60;80.90;;;;;;4995005;28;20461;-75
2023/10/03 16:32:32;;;;;;;3.90;1.23;;;19.50;80.20;;;;;;4994746;28;20445;-74
2023/10/03 16:34:59;;;;;;;1.90;1.10;;;19.30;80.50;;;;;;4995453;28;20473;-74
2023/10/03 16:37:26;;;;;;;2.20;1.10;;;19.20;81.00;;;;;;4996237;28;20465;-75
2023/10/03 16:39:54;;;;;;;2.20;1.10;;;19.10;80.90;;;;;;4998236;28;20448;-74
2023/10/03 16:42:21;;;;;;;2.00;1.30;;;19.00;81.50;;;;;;4997762;28;20453;-74
2023/10/03 16:44:49;;;;;;;2.47;1.00;;;19.00;80.70;;;;;;4996347;28;20456;-74
2023/10/03 16:47:16;;;;;;;3.10;1.30;;;18.90;80.90;;;;;;4995801;28;20471;-74
2023/10/03 16:49:44;;;;;;;2.30;1.20;;;18.80;80.70;;;;;;4994744;28;20943;-74
2023/10/03 16:52:11;;;;;;;1.90;0.90;;;18.70;80.80;;;;;;4995699;28;20460;-74
2023/10/03 16:54:37;;;;;;;2.00;1.03;;;18.60;81.10;;;;;;4996277;28;20580;-74